sensor_id;sensor_type;location;lat;lon;timestamp;P1;durP1;ratioP1;P2;durP2;ratioP2
81036;SDS011;70521;47.468;19.306;2024-02-21T00:00:16;15.60;;;14.80;;
81036;SDS011;70521;47.468;19.306;2024-02-21T00:03:18;13.23;;;12.63;;
81036;SDS011;70521;47.468;19.306;2024-02-21T00:06:18;18.30;;;17.50;;
81036;SDS011;70521;47.468;19.306;2024-02-21T00:09:19;19.23;;;18.33;;
81036;SDS011;70521;47.468;19.306;2024-02-21T00:12:20;18.42;;;17.63;;
81036;SDS011;70521;47.468;19.306;2024-02-21T00:15:21;17.08;;;16.27;;
81036;SDS011;70521;47.468;19.306;2024-02-21T00:18:23;18.30;;;17.40;;
81036;SDS011;70521;47.468;19.306;2024-02-21T00:21:24;20.40;;;19.50;;
81036;SDS011;70521;47.468;19.306;2024-02-21T00:24:25;24.58;;;23.52;;
81036;SDS011;70521;47.468;19.306;2024-02-21T00:27:26;18.85;;;17.88;;
81036;SDS011;70521;47.468;19.306;2024-02-21T00:30:26;17.52;;;16.58;;
81036;SDS011;70521;47.468;19.306;2024-02-21T00:33:28;23.00;;;22.05;;
81036;SDS011;70521;47.468;19.306;2024-02-21T00:36:29;22.38;;;21.45;;
81036;SDS011;70521;47.468;19.306;2024-02-21T00:39:30;12.57;;;11.88;;
81036;SDS011;70521;47.468;19.306;2024-02-21T00:42:30;11.95;;;11.27;;
81036;SDS011;70521;47.468;19.306;2024-02-21T00:45:31;14.57;;;13.75;;
81036;SDS011;70521;47.468;19.306;2024-02-21T00:48:32;16.88;;;16.08;;
81036;SDS011;70521;47.468;19.306;2024-02-21T00:51:34;17.80;;;17.02;;
81036;SDS011;70521;47.468;19.306;2024-02-21T00:54:35;19.45;;;18.63;;
81036;SDS011;70521;47.468;19.306;2024-02-21T00:57:36;16.00;;;15.18;;
81036;SDS011;70521;47.468;19.306;2024-02-21T01:00:37;15.55;;;14.75;;
81036;SDS011;70521;47.468;19.306;2024-02-21T01:03:39;15.48;;;14.77;;
81036;SDS011;70521;47.468;19.306;2024-02-21T01:06:40;14.68;;;13.93;;
81036;SDS011;70521;47.468;19.306;2024-02-21T01:09:43;14.30;;;13.60;;
81036;SDS011;70521;47.468;19.306;2024-02-21T01:12:44;13.20;;;12.60;;
81036;SDS011;70521;47.468;19.306;2024-02-21T01:15:45;16.02;;;15.32;;
81036;SDS011;70521;47.468;19.306;2024-02-21T01:18:46;7.28;;;6.78;;
81036;SDS011;70521;47.468;19.306;2024-02-21T01:21:47;13.70;;;12.80;;
81036;SDS011;70521;47.468;19.306;2024-02-21T01:24:48;14.13;;;13.50;;
81036;SDS011;70521;47.468;19.306;2024-02-21T01:27:49;17.88;;;17.08;;
81036;SDS011;70521;47.468;19.306;2024-02-21T01:30:49;9.52;;;8.82;;
81036;SDS011;70521;47.468;19.306;2024-02-21T01:33:50;6.38;;;5.97;;
81036;SDS011;70521;47.468;19.306;2024-02-21T01:36:51;12.52;;;11.93;;
81036;SDS011;70521;47.468;19.306;2024-02-21T01:39:52;15.15;;;14.55;;
81036;SDS011;70521;47.468;19.306;2024-02-21T01:42:55;8.77;;;8.20;;
81036;SDS011;70521;47.468;19.306;2024-02-21T01:45:56;13.63;;;13.10;;
81036;SDS011;70521;47.468;19.306;2024-02-21T01:48:57;13.65;;;12.85;;
81036;SDS011;70521;47.468;19.306;2024-02-21T01:51:58;16.92;;;16.33;;
81036;SDS011;70521;47.468;19.306;2024-02-21T01:54:59;21.75;;;20.98;;
81036;SDS011;70521;47.468;19.306;2024-02-21T01:58:00;15.20;;;14.70;;
81036;SDS011;70521;47.468;19.306;2024-02-21T02:01:02;12.23;;;11.63;;
81036;SDS011;70521;47.468;19.306;2024-02-21T02:04:03;17.63;;;16.83;;
81036;SDS011;70521;47.468;19.306;2024-02-21T02:07:06;14.88;;;14.27;;
81036;SDS011;70521;47.468;19.306;2024-02-21T02:10:07;13.02;;;12.52;;
81036;SDS011;70521;47.468;19.306;2024-02-21T02:13:08;14.73;;;13.95;;
81036;SDS011;70521;47.468;19.306;2024-02-21T02:16:09;12.13;;;11.60;;
81036;SDS011;70521;47.468;19.306;2024-02-21T02:19:10;12.85;;;12.35;;
81036;SDS011;70521;47.468;19.306;2024-02-21T02:22:14;18.75;;;18.05;;
81036;SDS011;70521;47.468;19.306;2024-02-21T02:25:20;13.70;;;13.02;;
81036;SDS011;70521;47.468;19.306;2024-02-21T02:28:21;13.50;;;12.90;;
81036;SDS011;70521;47.468;19.306;2024-02-21T02:31:22;9.20;;;8.60;;
81036;SDS011;70521;47.468;19.306;2024-02-21T02:34:23;10.15;;;9.50;;
81036;SDS011;70521;47.468;19.306;2024-02-21T02:37:24;9.77;;;9.18;;
81036;SDS011;70521;47.468;19.306;2024-02-21T02:40:25;14.68;;;14.00;;
81036;SDS011;70521;47.468;19.306;2024-02-21T02:43:25;15.25;;;14.65;;
81036;SDS011;70521;47.468;19.306;2024-02-21T02:46:26;13.35;;;12.60;;
81036;SDS011;70521;47.468;19.306;2024-02-21T02:49:27;12.90;;;12.20;;
81036;SDS011;70521;47.468;19.306;2024-02-21T02:52:28;11.02;;;10.60;;
81036;SDS011;70521;47.468;19.306;2024-02-21T02:55:29;16.73;;;15.95;;
81036;SDS011;70521;47.468;19.306;2024-02-21T02:58:30;12.20;;;11.70;;
81036;SDS011;70521;47.468;19.306;2024-02-21T03:01:33;13.00;;;12.30;;
81036;SDS011;70521;47.468;19.306;2024-02-21T03:04:34;11.38;;;10.77;;
81036;SDS011;70521;47.468;19.306;2024-02-21T03:07:35;15.82;;;15.13;;
81036;SDS011;70521;47.468;19.306;2024-02-21T03:10:36;17.65;;;16.77;;
81036;SDS011;70521;47.468;19.306;2024-02-21T03:13:37;17.00;;;16.27;;
81036;SDS011;70521;47.468;19.306;2024-02-21T03:16:38;12.27;;;11.68;;
81036;SDS011;70521;47.468;19.306;2024-02-21T03:19:39;21.27;;;20.48;;
81036;SDS011;70521;47.468;19.306;2024-02-21T03:22:40;16.83;;;16.02;;
81036;SDS011;70521;47.468;19.306;2024-02-21T03:25:41;14.13;;;13.43;;
81036;SDS011;70521;47.468;19.306;2024-02-21T03:28:42;13.57;;;12.98;;
81036;SDS011;70521;47.468;19.306;2024-02-21T03:31:44;17.60;;;16.95;;
81036;SDS011;70521;47.468;19.306;2024-02-21T03:34:45;12.40;;;11.90;;
81036;SDS011;70521;47.468;19.306;2024-02-21T03:37:46;15.07;;;14.45;;
81036;SDS011;70521;47.468;19.306;2024-02-21T03:40:47;15.93;;;15.23;;
81036;SDS011;70521;47.468;19.306;2024-02-21T03:43:48;22.02;;;21.25;;
81036;SDS011;70521;47.468;19.306;2024-02-21T03:46:49;15.00;;;14.30;;
81036;SDS011;70521;47.468;19.306;2024-02-21T03:49:50;10.98;;;10.48;;
81036;SDS011;70521;47.468;19.306;2024-02-21T03:52:51;13.13;;;12.52;;
81036;SDS011;70521;47.468;19.306;2024-02-21T03:55:52;15.20;;;14.40;;
81036;SDS011;70521;47.468;19.306;2024-02-21T03:58:54;15.18;;;14.50;;
81036;SDS011;70521;47.468;19.306;2024-02-21T04:01:55;13.65;;;13.05;;
81036;SDS011;70521;47.468;19.306;2024-02-21T04:04:56;16.85;;;16.25;;
81036;SDS011;70521;47.468;19.306;2024-02-21T04:07:57;17.83;;;17.02;;
81036;SDS011;70521;47.468;19.306;2024-02-21T04:10:58;17.90;;;17.20;;
81036;SDS011;70521;47.468;19.306;2024-02-21T04:13:59;15.07;;;14.48;;
81036;SDS011;70521;47.468;19.306;2024-02-21T04:17:00;13.82;;;13.02;;
81036;SDS011;70521;47.468;19.306;2024-02-21T04:20:02;15.60;;;14.63;;
81036;SDS011;70521;47.468;19.306;2024-02-21T04:23:05;18.88;;;18.08;;
81036;SDS011;70521;47.468;19.306;2024-02-21T04:26:06;16.75;;;16.05;;
81036;SDS011;70521;47.468;19.306;2024-02-21T04:29:07;16.13;;;15.38;;
81036;SDS011;70521;47.468;19.306;2024-02-21T04:32:08;12.85;;;12.25;;
81036;SDS011;70521;47.468;19.306;2024-02-21T04:35:10;13.88;;;13.27;;
81036;SDS011;70521;47.468;19.306;2024-02-21T04:38:11;13.80;;;13.10;;
81036;SDS011;70521;47.468;19.306;2024-02-21T04:41:12;14.18;;;13.45;;
81036;SDS011;70521;47.468;19.306;2024-02-21T04:44:13;15.30;;;14.60;;
81036;SDS011;70521;47.468;19.306;2024-02-21T04:47:13;16.85;;;16.05;;
81036;SDS011;70521;47.468;19.306;2024-02-21T04:50:14;15.48;;;14.80;;
81036;SDS011;70521;47.468;19.306;2024-02-21T04:53:15;17.75;;;17.05;;
81036;SDS011;70521;47.468;19.306;2024-02-21T04:56:16;22.30;;;21.27;;
81036;SDS011;70521;47.468;19.306;2024-02-21T04:59:17;20.08;;;19.10;;
81036;SDS011;70521;47.468;19.306;2024-02-21T05:02:18;17.30;;;16.40;;
81036;SDS011;70521;47.468;19.306;2024-02-21T05:05:20;14.43;;;13.63;;
81036;SDS011;70521;47.468;19.306;2024-02-21T05:08:21;22.48;;;21.40;;
81036;SDS011;70521;47.468;19.306;2024-02-21T05:11:22;22.48;;;21.38;;
81036;SDS011;70521;47.468;19.306;2024-02-21T05:14:23;21.70;;;20.80;;
81036;SDS011;70521;47.468;19.306;2024-02-21T05:17:24;19.50;;;18.65;;
81036;SDS011;70521;47.468;19.306;2024-02-21T05:20:25;23.15;;;22.15;;
81036;SDS011;70521;47.468;19.306;2024-02-21T05:23:26;15.15;;;14.27;;
81036;SDS011;70521;47.468;19.306;2024-02-21T05:26:27;21.55;;;20.38;;
81036;SDS011;70521;47.468;19.306;2024-02-21T05:29:28;22.08;;;20.92;;
81036;SDS011;70521;47.468;19.306;2024-02-21T05:32:29;15.70;;;15.02;;
81036;SDS011;70521;47.468;19.306;2024-02-21T05:35:31;19.50;;;18.30;;
81036;SDS011;70521;47.468;19.306;2024-02-21T05:38:32;23.35;;;22.25;;
81036;SDS011;70521;47.468;19.306;2024-02-21T05:41:33;18.10;;;17.27;;
81036;SDS011;70521;47.468;19.306;2024-02-21T05:44:34;12.90;;;12.07;;
81036;SDS011;70521;47.468;19.306;2024-02-21T05:47:35;18.98;;;17.98;;
81036;SDS011;70521;47.468;19.306;2024-02-21T05:50:36;25.73;;;24.52;;
81036;SDS011;70521;47.468;19.306;2024-02-21T05:53:37;32.40;;;31.20;;
81036;SDS011;70521;47.468;19.306;2024-02-21T05:56:44;22.63;;;21.63;;
81036;SDS011;70521;47.468;19.306;2024-02-21T05:59:46;19.50;;;18.50;;
81036;SDS011;70521;47.468;19.306;2024-02-21T06:02:47;19.77;;;18.70;;
81036;SDS011;70521;47.468;19.306;2024-02-21T06:05:48;21.58;;;20.20;;
81036;SDS011;70521;47.468;19.306;2024-02-21T06:08:49;20.92;;;19.92;;
81036;SDS011;70521;47.468;19.306;2024-02-21T06:11:49;19.73;;;18.75;;
81036;SDS011;70521;47.468;19.306;2024-02-21T06:14:50;19.40;;;18.50;;
81036;SDS011;70521;47.468;19.306;2024-02-21T06:17:51;17.70;;;16.75;;
81036;SDS011;70521;47.468;19.306;2024-02-21T06:20:52;20.10;;;18.85;;
81036;SDS011;70521;47.468;19.306;2024-02-21T06:23:53;20.40;;;19.40;;
81036;SDS011;70521;47.468;19.306;2024-02-21T06:26:54;19.48;;;18.27;;
81036;SDS011;70521;47.468;19.306;2024-02-21T06:29:55;21.85;;;20.48;;
81036;SDS011;70521;47.468;19.306;2024-02-21T06:32:56;23.35;;;22.00;;
81036;SDS011;70521;47.468;19.306;2024-02-21T06:35:57;26.58;;;25.38;;
81036;SDS011;70521;47.468;19.306;2024-02-21T06:38:58;34.80;;;33.35;;
81036;SDS011;70521;47.468;19.306;2024-02-21T06:41:59;22.58;;;21.40;;
81036;SDS011;70521;47.468;19.306;2024-02-21T06:45:00;19.60;;;18.70;;
81036;SDS011;70521;47.468;19.306;2024-02-21T06:48:01;18.40;;;17.35;;
81036;SDS011;70521;47.468;19.306;2024-02-21T06:51:03;22.17;;;21.00;;
81036;SDS011;70521;47.468;19.306;2024-02-21T06:54:04;24.30;;;23.13;;
81036;SDS011;70521;47.468;19.306;2024-02-21T06:57:05;20.02;;;18.70;;
81036;SDS011;70521;47.468;19.306;2024-02-21T07:00:06;22.13;;;20.83;;
81036;SDS011;70521;47.468;19.306;2024-02-21T07:03:08;17.73;;;16.77;;
81036;SDS011;70521;47.468;19.306;2024-02-21T07:06:09;20.58;;;19.38;;
81036;SDS011;70521;47.468;19.306;2024-02-21T07:09:10;21.52;;;20.33;;
81036;SDS011;70521;47.468;19.306;2024-02-21T07:12:11;17.95;;;17.00;;
81036;SDS011;70521;47.468;19.306;2024-02-21T07:15:12;18.40;;;17.20;;
81036;SDS011;70521;47.468;19.306;2024-02-21T07:18:13;21.95;;;20.95;;
81036;SDS011;70521;47.468;19.306;2024-02-21T07:21:14;18.45;;;17.48;;
81036;SDS011;70521;47.468;19.306;2024-02-21T07:24:15;16.73;;;15.82;;
81036;SDS011;70521;47.468;19.306;2024-02-21T07:27:16;14.77;;;13.95;;
81036;SDS011;70521;47.468;19.306;2024-02-21T07:30:17;10.43;;;9.63;;
81036;SDS011;70521;47.468;19.306;2024-02-21T07:33:18;11.13;;;10.43;;
81036;SDS011;70521;47.468;19.306;2024-02-21T07:36:29;8.90;;;8.10;;
81036;SDS011;70521;47.468;19.306;2024-02-21T07:39:31;9.00;;;8.25;;
81036;SDS011;70521;47.468;19.306;2024-02-21T07:42:31;7.95;;;7.25;;
81036;SDS011;70521;47.468;19.306;2024-02-21T07:45:32;7.60;;;7.00;;
81036;SDS011;70521;47.468;19.306;2024-02-21T07:48:33;6.68;;;6.10;;
81036;SDS011;70521;47.468;19.306;2024-02-21T07:51:34;6.05;;;5.65;;
81036;SDS011;70521;47.468;19.306;2024-02-21T07:54:37;6.95;;;6.32;;
81036;SDS011;70521;47.468;19.306;2024-02-21T07:57:37;6.88;;;6.25;;
81036;SDS011;70521;47.468;19.306;2024-02-21T08:00:38;5.45;;;4.95;;
81036;SDS011;70521;47.468;19.306;2024-02-21T08:03:39;7.15;;;5.60;;
81036;SDS011;70521;47.468;19.306;2024-02-21T08:06:40;8.80;;;5.55;;
81036;SDS011;70521;47.468;19.306;2024-02-21T08:09:41;5.22;;;4.78;;
81036;SDS011;70521;47.468;19.306;2024-02-21T08:12:42;6.25;;;4.15;;
81036;SDS011;70521;47.468;19.306;2024-02-21T08:15:43;5.47;;;3.75;;
81036;SDS011;70521;47.468;19.306;2024-02-21T08:18:44;4.82;;;4.32;;
81036;SDS011;70521;47.468;19.306;2024-02-21T08:21:46;5.20;;;4.32;;
81036;SDS011;70521;47.468;19.306;2024-02-21T08:24:47;3.88;;;3.53;;
81036;SDS011;70521;47.468;19.306;2024-02-21T08:27:48;4.93;;;4.20;;
81036;SDS011;70521;47.468;19.306;2024-02-21T08:30:49;5.32;;;3.65;;
81036;SDS011;70521;47.468;19.306;2024-02-21T08:33:50;4.65;;;3.92;;
81036;SDS011;70521;47.468;19.306;2024-02-21T08:36:51;4.95;;;3.78;;
81036;SDS011;70521;47.468;19.306;2024-02-21T08:39:52;6.43;;;3.90;;
81036;SDS011;70521;47.468;19.306;2024-02-21T08:42:53;4.47;;;3.75;;
81036;SDS011;70521;47.468;19.306;2024-02-21T08:45:54;5.25;;;3.67;;
81036;SDS011;70521;47.468;19.306;2024-02-21T08:48:55;5.70;;;4.03;;
81036;SDS011;70521;47.468;19.306;2024-02-21T08:51:56;5.38;;;4.07;;
81036;SDS011;70521;47.468;19.306;2024-02-21T08:54:57;6.50;;;4.03;;
81036;SDS011;70521;47.468;19.306;2024-02-21T08:57:58;4.70;;;3.70;;
81036;SDS011;70521;47.468;19.306;2024-02-21T09:00:59;4.10;;;3.42;;
81036;SDS011;70521;47.468;19.306;2024-02-21T09:03:59;4.93;;;3.60;;
81036;SDS011;70521;47.468;19.306;2024-02-21T09:07:00;4.97;;;3.55;;
81036;SDS011;70521;47.468;19.306;2024-02-21T09:10:01;5.35;;;3.80;;
81036;SDS011;70521;47.468;19.306;2024-02-21T09:13:03;4.63;;;3.67;;
81036;SDS011;70521;47.468;19.306;2024-02-21T09:16:04;4.15;;;3.08;;
81036;SDS011;70521;47.468;19.306;2024-02-21T09:19:06;4.13;;;3.30;;
81036;SDS011;70521;47.468;19.306;2024-02-21T09:22:11;5.32;;;3.33;;
81036;SDS011;70521;47.468;19.306;2024-02-21T09:25:12;4.63;;;3.17;;
81036;SDS011;70521;47.468;19.306;2024-02-21T09:28:13;3.97;;;3.50;;
81036;SDS011;70521;47.468;19.306;2024-02-21T09:31:14;3.50;;;3.20;;
81036;SDS011;70521;47.468;19.306;2024-02-21T09:34:15;6.15;;;3.90;;
81036;SDS011;70521;47.468;19.306;2024-02-21T09:37:15;4.65;;;2.80;;
81036;SDS011;70521;47.468;19.306;2024-02-21T09:40:16;5.00;;;3.83;;
81036;SDS011;70521;47.468;19.306;2024-02-21T09:43:18;5.68;;;4.95;;
81036;SDS011;70521;47.468;19.306;2024-02-21T09:46:19;6.30;;;3.70;;
81036;SDS011;70521;47.468;19.306;2024-02-21T09:49:32;6.22;;;3.63;;
81036;SDS011;70521;47.468;19.306;2024-02-21T09:52:34;4.53;;;3.47;;
81036;SDS011;70521;47.468;19.306;2024-02-21T09:55:36;3.92;;;3.00;;
81036;SDS011;70521;47.468;19.306;2024-02-21T09:58:40;7.47;;;3.45;;
81036;SDS011;70521;47.468;19.306;2024-02-21T10:01:42;4.28;;;3.67;;
81036;SDS011;70521;47.468;19.306;2024-02-21T10:04:44;4.97;;;3.70;;
81036;SDS011;70521;47.468;19.306;2024-02-21T10:07:45;6.35;;;4.63;;
81036;SDS011;70521;47.468;19.306;2024-02-21T10:10:46;4.72;;;4.30;;
81036;SDS011;70521;47.468;19.306;2024-02-21T10:13:47;4.80;;;4.38;;
81036;SDS011;70521;47.468;19.306;2024-02-21T10:16:48;5.60;;;4.70;;
81036;SDS011;70521;47.468;19.306;2024-02-21T10:19:50;4.55;;;4.00;;
81036;SDS011;70521;47.468;19.306;2024-02-21T10:23:02;5.93;;;4.20;;
81036;SDS011;70521;47.468;19.306;2024-02-21T10:26:04;6.25;;;4.53;;
81036;SDS011;70521;47.468;19.306;2024-02-21T10:29:05;6.10;;;4.90;;
81036;SDS011;70521;47.468;19.306;2024-02-21T10:32:13;6.35;;;5.68;;
81036;SDS011;70521;47.468;19.306;2024-02-21T10:35:14;6.18;;;5.25;;
81036;SDS011;70521;47.468;19.306;2024-02-21T10:38:15;5.65;;;4.68;;
81036;SDS011;70521;47.468;19.306;2024-02-21T10:41:16;5.20;;;4.80;;
81036;SDS011;70521;47.468;19.306;2024-02-21T10:44:19;5.63;;;4.25;;
81036;SDS011;70521;47.468;19.306;2024-02-21T10:47:22;4.40;;;4.03;;
81036;SDS011;70521;47.468;19.306;2024-02-21T10:50:23;4.25;;;3.85;;
81036;SDS011;70521;47.468;19.306;2024-02-21T10:53:32;5.85;;;2.80;;
81036;SDS011;70521;47.468;19.306;2024-02-21T10:56:36;3.53;;;2.90;;
81036;SDS011;70521;47.468;19.306;2024-02-21T10:59:39;7.40;;;3.58;;
81036;SDS011;70521;47.468;19.306;2024-02-21T11:02:40;5.32;;;3.55;;
81036;SDS011;70521;47.468;19.306;2024-02-21T11:05:42;5.82;;;3.80;;
81036;SDS011;70521;47.468;19.306;2024-02-21T11:08:46;5.72;;;3.60;;
81036;SDS011;70521;47.468;19.306;2024-02-21T11:11:47;5.00;;;3.85;;
81036;SDS011;70521;47.468;19.306;2024-02-21T11:14:50;5.07;;;4.50;;
81036;SDS011;70521;47.468;19.306;2024-02-21T11:17:55;4.20;;;3.80;;
81036;SDS011;70521;47.468;19.306;2024-02-21T11:20:56;4.50;;;4.10;;
81036;SDS011;70521;47.468;19.306;2024-02-21T11:23:56;4.78;;;4.20;;
81036;SDS011;70521;47.468;19.306;2024-02-21T11:30:17;5.50;;;5.07;;
81036;SDS011;70521;47.468;19.306;2024-02-21T11:33:27;4.72;;;3.85;;
81036;SDS011;70521;47.468;19.306;2024-02-21T11:36:27;5.65;;;5.00;;
81036;SDS011;70521;47.468;19.306;2024-02-21T11:39:29;4.55;;;4.13;;
81036;SDS011;70521;47.468;19.306;2024-02-21T11:42:30;5.32;;;4.85;;
81036;SDS011;70521;47.468;19.306;2024-02-21T11:45:31;7.15;;;4.60;;
81036;SDS011;70521;47.468;19.306;2024-02-21T11:48:33;5.05;;;4.53;;
81036;SDS011;70521;47.468;19.306;2024-02-21T11:51:34;8.27;;;7.75;;
81036;SDS011;70521;47.468;19.306;2024-02-21T11:54:35;4.38;;;3.85;;
81036;SDS011;70521;47.468;19.306;2024-02-21T11:57:37;6.60;;;5.00;;
81036;SDS011;70521;47.468;19.306;2024-02-21T12:00:41;6.10;;;4.40;;
81036;SDS011;70521;47.468;19.306;2024-02-21T12:03:42;6.72;;;6.05;;
81036;SDS011;70521;47.468;19.306;2024-02-21T12:06:49;6.32;;;4.60;;
81036;SDS011;70521;47.468;19.306;2024-02-21T12:09:51;5.70;;;5.30;;
81036;SDS011;70521;47.468;19.306;2024-02-21T12:12:51;6.88;;;6.40;;
81036;SDS011;70521;47.468;19.306;2024-02-21T12:15:53;6.25;;;5.20;;
81036;SDS011;70521;47.468;19.306;2024-02-21T12:18:54;5.85;;;5.35;;
81036;SDS011;70521;47.468;19.306;2024-02-21T12:21:55;7.95;;;7.07;;
81036;SDS011;70521;47.468;19.306;2024-02-21T12:24:58;6.97;;;6.35;;
81036;SDS011;70521;47.468;19.306;2024-02-21T12:27:59;14.95;;;8.90;;
81036;SDS011;70521;47.468;19.306;2024-02-21T12:31:01;7.35;;;6.47;;
81036;SDS011;70521;47.468;19.306;2024-02-21T12:34:04;5.78;;;5.25;;
81036;SDS011;70521;47.468;19.306;2024-02-21T12:37:05;9.13;;;8.63;;
81036;SDS011;70521;47.468;19.306;2024-02-21T12:40:08;8.68;;;6.45;;
81036;SDS011;70521;47.468;19.306;2024-02-21T12:43:09;10.75;;;7.13;;
81036;SDS011;70521;47.468;19.306;2024-02-21T12:46:10;12.25;;;6.88;;
81036;SDS011;70521;47.468;19.306;2024-02-21T12:49:11;9.95;;;6.93;;
81036;SDS011;70521;47.468;19.306;2024-02-21T12:52:12;7.88;;;5.85;;
81036;SDS011;70521;47.468;19.306;2024-02-21T12:55:14;4.80;;;4.32;;
81036;SDS011;70521;47.468;19.306;2024-02-21T12:58:16;6.05;;;4.95;;
81036;SDS011;70521;47.468;19.306;2024-02-21T13:01:17;6.22;;;5.65;;
81036;SDS011;70521;47.468;19.306;2024-02-21T13:04:18;6.65;;;6.13;;
81036;SDS011;70521;47.468;19.306;2024-02-21T13:07:19;6.40;;;5.75;;
81036;SDS011;70521;47.468;19.306;2024-02-21T13:10:20;6.05;;;5.55;;
81036;SDS011;70521;47.468;19.306;2024-02-21T13:13:20;5.18;;;4.38;;
81036;SDS011;70521;47.468;19.306;2024-02-21T13:16:21;7.97;;;6.93;;
81036;SDS011;70521;47.468;19.306;2024-02-21T13:19:23;7.43;;;6.75;;
81036;SDS011;70521;47.468;19.306;2024-02-21T13:22:24;6.75;;;6.10;;
81036;SDS011;70521;47.468;19.306;2024-02-21T13:25:26;7.43;;;6.82;;
81036;SDS011;70521;47.468;19.306;2024-02-21T13:28:27;7.75;;;6.63;;
81036;SDS011;70521;47.468;19.306;2024-02-21T13:31:28;9.57;;;7.97;;
81036;SDS011;70521;47.468;19.306;2024-02-21T13:34:29;7.10;;;6.40;;
81036;SDS011;70521;47.468;19.306;2024-02-21T13:37:33;7.63;;;5.72;;
81036;SDS011;70521;47.468;19.306;2024-02-21T13:40:34;7.95;;;6.65;;
81036;SDS011;70521;47.468;19.306;2024-02-21T13:43:35;7.28;;;6.57;;
81036;SDS011;70521;47.468;19.306;2024-02-21T13:46:36;6.68;;;6.03;;
81036;SDS011;70521;47.468;19.306;2024-02-21T13:49:37;9.40;;;6.22;;
81036;SDS011;70521;47.468;19.306;2024-02-21T13:52:38;7.63;;;7.00;;
81036;SDS011;70521;47.468;19.306;2024-02-21T13:55:39;6.07;;;5.18;;
81036;SDS011;70521;47.468;19.306;2024-02-21T13:58:41;8.23;;;7.40;;
81036;SDS011;70521;47.468;19.306;2024-02-21T14:01:42;6.88;;;6.28;;
81036;SDS011;70521;47.468;19.306;2024-02-21T14:04:43;6.35;;;5.75;;
81036;SDS011;70521;47.468;19.306;2024-02-21T14:07:44;13.75;;;12.77;;
81036;SDS011;70521;47.468;19.306;2024-02-21T14:10:46;6.60;;;5.70;;
81036;SDS011;70521;47.468;19.306;2024-02-21T14:13:48;6.93;;;6.38;;
81036;SDS011;70521;47.468;19.306;2024-02-21T14:16:49;7.63;;;6.93;;
81036;SDS011;70521;47.468;19.306;2024-02-21T14:19:50;8.10;;;7.53;;
81036;SDS011;70521;47.468;19.306;2024-02-21T14:22:52;8.73;;;8.02;;
81036;SDS011;70521;47.468;19.306;2024-02-21T14:25:53;7.28;;;6.68;;
81036;SDS011;70521;47.468;19.306;2024-02-21T14:28:54;8.40;;;7.28;;
81036;SDS011;70521;47.468;19.306;2024-02-21T14:31:55;20.00;;;15.50;;
81036;SDS011;70521;47.468;19.306;2024-02-21T14:34:56;45.22;;;35.70;;
81036;SDS011;70521;47.468;19.306;2024-02-21T14:37:57;34.95;;;30.55;;
81036;SDS011;70521;47.468;19.306;2024-02-21T14:40:58;9.18;;;8.23;;
81036;SDS011;70521;47.468;19.306;2024-02-21T14:43:59;8.77;;;7.85;;
81036;SDS011;70521;47.468;19.306;2024-02-21T14:47:00;6.00;;;5.28;;
81036;SDS011;70521;47.468;19.306;2024-02-21T14:50:02;8.50;;;6.75;;
81036;SDS011;70521;47.468;19.306;2024-02-21T14:53:05;6.30;;;5.80;;
81036;SDS011;70521;47.468;19.306;2024-02-21T14:56:12;6.18;;;5.20;;
81036;SDS011;70521;47.468;19.306;2024-02-21T14:59:13;8.68;;;6.95;;
81036;SDS011;70521;47.468;19.306;2024-02-21T15:02:14;6.97;;;6.30;;
81036;SDS011;70521;47.468;19.306;2024-02-21T15:05:15;7.30;;;6.55;;
81036;SDS011;70521;47.468;19.306;2024-02-21T15:08:16;27.42;;;24.67;;
81036;SDS011;70521;47.468;19.306;2024-02-21T15:11:19;20.38;;;18.95;;
81036;SDS011;70521;47.468;19.306;2024-02-21T15:14:20;8.35;;;7.65;;
81036;SDS011;70521;47.468;19.306;2024-02-21T15:17:20;10.77;;;9.88;;
81036;SDS011;70521;47.468;19.306;2024-02-21T15:20:21;6.60;;;5.93;;
81036;SDS011;70521;47.468;19.306;2024-02-21T15:23:22;8.80;;;8.10;;
81036;SDS011;70521;47.468;19.306;2024-02-21T15:26:25;8.95;;;7.55;;
81036;SDS011;70521;47.468;19.306;2024-02-21T15:29:26;7.72;;;7.00;;
81036;SDS011;70521;47.468;19.306;2024-02-21T15:32:28;8.02;;;7.15;;
81036;SDS011;70521;47.468;19.306;2024-02-21T15:35:29;7.35;;;6.85;;
81036;SDS011;70521;47.468;19.306;2024-02-21T15:38:31;10.05;;;9.13;;
81036;SDS011;70521;47.468;19.306;2024-02-21T15:41:31;11.02;;;9.52;;
81036;SDS011;70521;47.468;19.306;2024-02-21T15:44:32;11.25;;;9.55;;
81036;SDS011;70521;47.468;19.306;2024-02-21T15:47:33;9.15;;;8.35;;
81036;SDS011;70521;47.468;19.306;2024-02-21T15:50:34;8.38;;;7.55;;
81036;SDS011;70521;47.468;19.306;2024-02-21T15:53:36;6.13;;;5.55;;
81036;SDS011;70521;47.468;19.306;2024-02-21T15:56:39;8.05;;;7.45;;
81036;SDS011;70521;47.468;19.306;2024-02-21T15:59:40;9.50;;;8.63;;
81036;SDS011;70521;47.468;19.306;2024-02-21T16:02:40;7.93;;;7.05;;
81036;SDS011;70521;47.468;19.306;2024-02-21T16:05:41;8.02;;;6.32;;
81036;SDS011;70521;47.468;19.306;2024-02-21T16:08:42;11.85;;;10.88;;
81036;SDS011;70521;47.468;19.306;2024-02-21T16:11:43;11.68;;;10.93;;
81036;SDS011;70521;47.468;19.306;2024-02-21T16:14:45;9.43;;;7.30;;
81036;SDS011;70521;47.468;19.306;2024-02-21T16:17:48;11.38;;;10.45;;
81036;SDS011;70521;47.468;19.306;2024-02-21T16:20:49;11.20;;;10.20;;
81036;SDS011;70521;47.468;19.306;2024-02-21T16:23:50;12.60;;;11.52;;
81036;SDS011;70521;47.468;19.306;2024-02-21T16:26:51;10.32;;;9.40;;
81036;SDS011;70521;47.468;19.306;2024-02-21T16:29:52;11.95;;;10.70;;
81036;SDS011;70521;47.468;19.306;2024-02-21T16:32:53;14.85;;;12.40;;
81036;SDS011;70521;47.468;19.306;2024-02-21T16:35:54;19.35;;;14.82;;
81036;SDS011;70521;47.468;19.306;2024-02-21T16:38:55;20.15;;;13.85;;
81036;SDS011;70521;47.468;19.306;2024-02-21T16:41:57;20.48;;;17.52;;
81036;SDS011;70521;47.468;19.306;2024-02-21T16:45:03;20.45;;;16.67;;
81036;SDS011;70521;47.468;19.306;2024-02-21T16:48:06;21.25;;;16.20;;
81036;SDS011;70521;47.468;19.306;2024-02-21T16:51:07;16.02;;;14.63;;
81036;SDS011;70521;47.468;19.306;2024-02-21T16:54:09;12.93;;;11.60;;
81036;SDS011;70521;47.468;19.306;2024-02-21T16:57:11;13.27;;;12.07;;
81036;SDS011;70521;47.468;19.306;2024-02-21T17:00:12;16.08;;;14.80;;
81036;SDS011;70521;47.468;19.306;2024-02-21T17:03:13;23.17;;;19.00;;
81036;SDS011;70521;47.468;19.306;2024-02-21T17:06:13;30.65;;;26.48;;
81036;SDS011;70521;47.468;19.306;2024-02-21T17:09:14;26.00;;;23.33;;
81036;SDS011;70521;47.468;19.306;2024-02-21T17:12:18;28.60;;;25.60;;
81036;SDS011;70521;47.468;19.306;2024-02-21T17:15:19;28.13;;;23.95;;
81036;SDS011;70521;47.468;19.306;2024-02-21T17:18:20;26.15;;;19.40;;
81036;SDS011;70521;47.468;19.306;2024-02-21T17:21:23;19.05;;;17.10;;
81036;SDS011;70521;47.468;19.306;2024-02-21T17:24:24;17.35;;;15.77;;
81036;SDS011;70521;47.468;19.306;2024-02-21T17:27:27;16.88;;;15.27;;
81036;SDS011;70521;47.468;19.306;2024-02-21T17:30:29;18.50;;;16.90;;
81036;SDS011;70521;47.468;19.306;2024-02-21T17:33:31;18.42;;;16.58;;
81036;SDS011;70521;47.468;19.306;2024-02-21T17:36:32;18.63;;;17.02;;
81036;SDS011;70521;47.468;19.306;2024-02-21T17:39:33;19.48;;;17.40;;
81036;SDS011;70521;47.468;19.306;2024-02-21T17:42:35;22.65;;;20.30;;